Time;durP1;ratioP1;P1;durP2;ratioP2;P2;SDS_P1;SDS_P2;PMS_P1;PMS_P2;Temp;Humidity;BMP_temperature;BMP_pressure;BME280_temperature;BME280_humidity;BME280_pressure;Samples;Min_cycle;Max_cycle;Signal;HPM_P1;HPM_P2
2022/11/04 00:01:06;;;;;;;;;32.00;29.75;;;;;13.37;56.08;98214.22;6200298;28;99026;-56
2022/11/04 00:04:12;;;;;;;;;32.40;31.00;;;;;13.61;56.79;98274.31;6226135;28;96297;-57
2022/11/04 00:13:57;;;;;;;;;27.67;25.00;;;;;12.64;56.44;98133.59;6240863;28;96560;-57
2022/11/04 00:17:20;;;;;;;;;31.40;28.00;;;;;13.25;56.54;98191.06;6239816;28;97155;-57
2022/11/04 00:30:29;;;;;;;;;29.33;27.00;;;;;13.70;57.41;98261.09;6241429;28;96317;-58
2022/11/04 00:33:31;;;;;;;;;31.40;28.60;;;;;13.10;57.03;98151.13;6240061;27;96310;-58
2022/11/04 00:36:36;;;;;;;;;28.25;25.50;;;;;13.15;57.07;98151.19;6241964;27;98460;-57
2022/11/04 00:39:40;;;;;;;;;29.00;28.00;;;;;13.11;57.49;98143.81;6264280;27;96704;-57
2022/11/04 00:42:45;;;;;;;;;32.50;30.00;;;;;13.78;56.81;98237.06;6229064;27;98801;-58
2022/11/04 00:45:49;;;;;;;;;30.80;27.40;;;;;13.29;56.82;98141.59;6259861;27;97032;-57
2022/11/04 00:48:52;;;;;;;;;29.80;28.80;;;;;13.14;56.59;98124.41;6241198;27;96946;-58
2022/11/04 00:51:57;;;;;;;;;27.00;26.00;;;;;13.88;57.08;98266.13;6265365;27;96600;-58
2022/11/04 00:55:01;;;;;;;;;31.00;26.50;;;;;13.91;56.65;98248.56;6228222;28;98564;-57
2022/11/04 00:58:04;;;;;;;;;33.00;29.40;;;;;13.84;56.47;98227.91;6259666;27;96317;-58
2022/11/04 01:01:09;;;;;;;;;29.00;26.00;;;;;13.97;56.60;98234.00;6237156;28;96738;-58
2022/11/04 01:04:13;;;;;;;;;29.00;25.25;;;;;14.00;56.43;98230.75;6224030;27;96778;-58
2022/11/04 01:07:18;;;;;;;;;30.60;27.60;;;;;13.85;57.60;98216.00;6229296;27;98608;-58
2022/11/04 01:10:22;;;;;;;;;28.20;26.20;;;;;13.94;57.13;98227.19;6256385;27;96263;-57
2022/11/04 01:13:25;;;;;;;;;31.75;28.00;;;;;13.99;56.85;98220.97;6230044;27;96873;-58
2022/11/04 01:16:29;;;;;;;;;30.60;28.40;;;;;13.88;56.83;98204.63;6231417;28;96420;-57
2022/11/04 01:19:32;;;;;;;;;29.60;27.00;;;;;13.88;56.95;98207.34;6230964;27;99617;-58
2022/11/04 01:22:37;;;;;;;;;29.00;28.00;;;;;13.80;57.12;98197.00;6222521;28;96659;-57
2022/11/04 01:25:41;;;;;;;;;31.40;28.00;;;;;13.31;57.40;98127.81;6226460;28;96402;-57
2022/11/04 01:28:45;;;;;;;;;31.20;29.60;;;;;13.77;57.69;98234.63;6229060;28;98453;-58
2022/11/04 01:31:49;;;;;;;;;31.00;28.00;;;;;13.06;57.77;98084.22;6245313;27;98878;-58
2022/11/04 01:34:53;;;;;;;;;27.00;25.00;;;;;13.41;58.67;98166.63;6229731;27;98703;-57
2022/11/04 01:37:58;;;;;;;;;28.40;26.60;;;;;13.56;58.53;98201.13;6227332;27;96768;-57
2022/11/04 01:41:02;;;;;;;;;27.20;25.20;;;;;12.65;58.56;98053.28;6230667;27;99258;-58
2022/11/04 01:44:39;;;;;;;;;29.00;26.00;;;;;12.83;58.44;98058.34;6246119;27;96344;-57
2022/11/04 01:47:48;;;;;;;;;27.20;26.20;;;;;12.40;59.32;98016.00;6221520;27;96557;-58
2022/11/04 01:50:55;;;;;;;;;26.67;25.33;;;;;12.80;58.61;98072.38;6222616;27;99079;-59
2022/11/04 01:54:02;;;;;;;;;24.00;22.40;;;;;13.05;59.74;98125.91;6228692;27;98707;-57
2022/11/04 01:57:11;;;;;;;;;29.00;26.00;;;;;12.66;59.49;98052.22;6221723;27;99903;-58
2022/11/04 02:00:18;;;;;;;;;27.00;25.50;;;;;13.03;59.58;98112.63;6233952;27;96359;-58
2022/11/04 02:03:26;;;;;;;;;27.00;25.00;;;;;12.80;59.50;98089.44;6229695;27;97132;-58
2022/11/04 02:06:29;;;;;;;;;24.25;22.00;;;;;12.76;59.64;98069.34;6238544;27;96797;-58
2022/11/04 02:09:37;;;;;;;;;24.40;23.20;;;;;12.93;59.70;98088.19;6217503;27;98742;-57
2022/11/04 02:12:50;;;;;;;;;24.00;23.00;;;;;12.57;60.16;98033.75;6230470;27;99095;-58
2022/11/04 02:16:03;;;;;;;;;29.40;25.80;;;;;12.49;60.34;98020.69;6212143;27;98710;-60
2022/11/04 02:19:30;;;;;;;;;26.60;23.40;;;;;12.42;60.34;98021.94;6231712;27;96804;-58
2022/11/04 02:23:03;;;;;;;;;28.00;23.00;;;;;13.21;60.53;98123.13;6214899;28;99516;-57
2022/11/04 02:26:56;;;;;;;;;24.00;22.40;;;;;12.71;60.20;98044.13;6212458;27;96948;-57
2022/11/04 02:30:10;;;;;;;;;23.60;23.00;;;;;13.12;60.89;98121.13;6222685;27;99626;-57
2022/11/04 02:33:21;;;;;;;;;25.40;23.40;;;;;12.43;60.60;98005.50;6262515;27;96911;-57
2022/11/04 02:36:33;;;;;;;;;24.20;22.20;;;;;12.49;61.02;98023.41;6234598;27;96888;-59
2022/11/04 02:39:48;;;;;;;;;30.60;27.60;;;;;12.36;60.52;98010.28;6221121;27;98734;-58
2022/11/04 02:42:59;;;;;;;;;29.00;26.00;;;;;13.10;60.60;98109.72;6241537;27;96357;-59
2022/11/04 02:46:08;;;;;;;;;26.00;23.60;;;;;13.10;60.74;98107.81;6226455;27;98377;-57
2022/11/04 02:49:13;;;;;;;;;26.80;24.00;;;;;12.41;60.67;98001.41;6246346;27;96752;-57
2022/11/04 02:52:25;;;;;;;;;26.00;24.67;;;;;11.99;60.75;97977.72;6248467;27;96794;-57
2022/11/04 02:55:34;;;;;;;;;26.50;24.50;;;;;11.69;61.12;97915.22;6244752;27;96355;-58
2022/11/04 02:58:43;;;;;;;;;26.75;25.00;;;;;12.09;60.88;97972.44;6240714;27;96231;-57
2022/11/04 03:01:51;;;;;;;;;25.00;23.00;;;;;11.84;60.73;97868.69;6209412;27;98567;-58
2022/11/04 03:04:58;;;;;;;;;24.00;23.60;;;;;12.49;61.22;97977.44;6249148;27;96464;-58
2022/11/04 03:08:06;;;;;;;;;25.25;23.25;;;;;12.36;60.80;98006.78;6223995;27;97038;-57
2022/11/04 03:11:14;;;;;;;;;26.80;24.80;;;;;12.53;60.40;97972.31;6217450;27;97046;-58
2022/11/04 03:14:24;;;;;;;;;24.80;23.20;;;;;12.68;60.46;97993.28;6246331;27;96387;-57
2022/11/04 03:17:35;;;;;;;;;24.40;23.40;;;;;13.44;59.80;98101.09;6232654;27;98757;-58
2022/11/04 03:20:42;;;;;;;;;25.75;23.00;;;;;12.75;59.67;97970.38;6268196;27;97365;-57
2022/11/04 03:23:46;;;;;;;;;26.80;24.40;;;;;12.80;59.99;97977.72;6268063;27;96478;-57
2022/11/04 03:26:59;;;;;;;;;25.00;24.20;;;;;12.83;59.80;97974.47;6261757;27;96511;-57
2022/11/04 03:30:07;;;;;;;;;24.00;22.00;;;;;13.18;59.79;98038.94;6258285;27;96218;-57
2022/11/04 03:33:23;;;;;;;;;28.00;24.00;;;;;13.30;59.56;98059.31;6231830;27;96842;-57
2022/11/04 03:36:29;;;;;;;;;27.00;22.00;;;;;13.00;59.78;97992.19;6268097;27;96572;-57
2022/11/04 03:39:33;;;;;;;;;29.00;24.00;;;;;11.98;59.73;97827.50;6267611;27;96376;-56
2022/11/04 03:42:46;;;;;;;;;28.40;24.60;;;;;11.98;59.52;97814.00;6243517;27;96582;-57
2022/11/04 03:45:52;;;;;;;;;27.40;23.60;;;;;13.22;59.66;98015.69;6242474;27;96380;-58
2022/11/04 03:48:59;;;;;;;;;29.20;26.20;;;;;12.94;59.24;97978.91;6231012;27;96321;-57
2022/11/04 03:52:03;;;;;;;;;25.60;23.40;;;;;13.62;59.26;98053.03;6232221;27;98356;-57
2022/11/04 03:55:09;;;;;;;;;21.40;21.40;;;;;12.93;59.17;97932.09;6249862;27;96519;-57
2022/11/04 03:58:25;;;;;;;;;24.75;23.75;;;;;12.97;58.51;97929.69;6268149;27;96328;-58
2022/11/04 04:01:41;;;;;;;;;24.00;22.00;;;;;13.12;58.30;97947.94;6244455;27;96862;-56
2022/11/04 04:04:57;;;;;;;;;23.00;20.00;;;;;13.85;57.74;98061.56;6249470;27;98675;-58
2022/11/04 04:08:12;;;;;;;;;24.60;22.60;;;;;13.86;58.25;98057.78;6260576;27;96996;-57
2022/11/04 04:11:23;;;;;;;;;22.20;21.40;;;;;12.51;58.27;97883.34;6249124;27;96893;-58
2022/11/04 04:14:42;;;;;;;;;24.00;20.00;;;;;13.22;57.92;97945.31;6245969;27;96233;-57
2022/11/04 04:17:53;;;;;;;;;21.20;19.20;;;;;13.07;58.18;97918.13;6248468;27;96340;-58
2022/11/04 04:21:02;;;;;;;;;21.00;18.00;;;;;12.61;58.36;97893.44;6232309;27;98550;-57
2022/11/04 04:27:34;;;;;;;;;19.80;17.20;;;;;13.64;58.94;98015.66;6241803;27;96468;-57
2022/11/04 04:30:40;;;;;;;;;18.75;18.00;;;;;12.90;59.08;97886.63;6242154;28;96903;-58
2022/11/04 04:33:44;;;;;;;;;22.50;19.00;;;;;12.81;58.49;97881.97;6227164;27;96555;-58
2022/11/04 04:36:53;;;;;;;;;22.40;19.00;;;;;13.25;58.13;97940.19;6254349;27;96518;-57
2022/11/04 04:46:52;;;;;;;;;19.00;17.40;;;;;12.72;58.00;97861.88;6243036;27;96519;-57
2022/11/04 04:49:57;;;;;;;;;18.20;17.20;;;;;12.85;58.29;97858.75;6255246;27;96943;-58
2022/11/04 04:53:03;;;;;;;;;19.00;16.20;;;;;12.88;58.62;97863.63;6244516;27;96250;-57
2022/11/04 04:56:06;;;;;;;;;20.60;17.00;;;;;12.90;58.50;97870.38;6256362;27;96507;-57
2022/11/04 04:59:09;;;;;;;;;22.40;20.00;;;;;13.16;58.00;97924.69;6242401;27;96479;-57
2022/11/04 05:02:13;;;;;;;;;21.40;19.40;;;;;13.05;58.01;97893.22;6243531;27;96083;-59
2022/11/04 05:05:18;;;;;;;;;18.00;16.25;;;;;12.70;58.19;97829.72;6266643;27;97493;-57
2022/11/04 05:08:25;;;;;;;;;18.50;17.50;;;;;13.69;58.48;98019.22;6231256;27;99427;-57
2022/11/04 05:11:28;;;;;;;;;17.00;15.00;;;;;12.98;58.42;97872.63;6241157;27;99215;-57
2022/11/04 05:14:32;;;;;;;;;19.00;16.40;;;;;13.55;58.45;97963.91;6242137;27;96430;-57
2022/11/04 05:17:35;;;;;;;;;18.00;16.00;;;;;13.67;58.91;97985.38;6224116;27;99048;-57
2022/11/04 05:20:39;;;;;;;;;16.80;15.00;;;;;12.85;58.58;97851.41;6223452;28;98867;-57
2022/11/04 05:23:45;;;;;;;;;20.00;16.40;;;;;13.61;59.42;97997.25;6244934;27;96734;-57
2022/11/04 05:26:49;;;;;;;;;17.60;16.00;;;;;13.38;59.28;97961.38;6246867;27;96805;-59
2022/11/04 05:29:54;;;;;;;;;18.00;16.33;;;;;13.26;59.01;97949.13;6238985;27;96360;-59
2022/11/04 05:32:58;;;;;;;;;18.60;15.80;;;;;13.33;59.37;97968.66;6244319;27;96564;-59
2022/11/04 05:36:08;;;;;;;;;18.60;17.60;;;;;13.53;59.52;97993.16;6232824;27;97574;-59
2022/11/04 05:39:13;;;;;;;;;21.20;19.00;;;;;13.46;59.40;97979.00;6239823;27;97362;-59
2022/11/04 05:42:17;;;;;;;;;18.80;17.80;;;;;13.48;59.74;97978.75;6243095;27;96477;-59
2022/11/04 05:45:20;;;;;;;;;20.00;17.00;;;;;13.48;59.62;97985.00;6242442;27;96663;-60
2022/11/04 05:48:24;;;;;;;;;16.00;15.00;;;;;13.43;60.31;97979.56;6233796;27;96403;-59
2022/11/04 05:51:28;;;;;;;;;17.00;16.00;;;;;13.47;59.66;97977.13;6216007;27;98516;-59
2022/11/04 05:54:37;;;;;;;;;17.00;16.00;;;;;13.59;59.71;97983.13;6241845;27;96415;-59
2022/11/04 05:57:47;;;;;;;;;18.00;17.00;;;;;13.42;59.59;97962.50;6245148;27;96439;-59
2022/11/04 06:00:53;;;;;;;;;15.40;15.00;;;;;13.44;59.54;97954.91;6257626;27;96602;-59
2022/11/04 06:04:00;;;;;;;;;16.00;14.40;;;;;13.74;59.22;97988.63;6232191;27;96846;-59
2022/11/04 06:07:05;;;;;;;;;18.80;16.80;;;;;13.74;58.88;97994.88;6236499;27;97425;-60
2022/11/04 06:10:12;;;;;;;;;18.80;17.40;;;;;13.50;59.10;97942.22;6232166;28;97192;-60
2022/11/04 06:13:16;;;;;;;;;15.00;14.00;;;;;13.76;58.96;97983.78;6233983;27;96250;-60
2022/11/04 06:16:20;;;;;;;;;20.00;16.00;;;;;13.79;59.03;97978.63;6217933;27;97885;-60
2022/11/04 06:19:24;;;;;;;;;16.25;13.25;;;;;13.16;58.87;97900.34;6231367;27;96781;-60
2022/11/04 06:22:29;;;;;;;;;17.20;16.20;;;;;12.47;58.69;97805.75;6253151;27;96255;-60
2022/11/04 06:25:35;;;;;;;;;15.00;15.00;;;;;13.62;58.13;97934.69;6224002;27;96423;-61
2022/11/04 06:28:39;;;;;;;;;15.00;14.00;;;;;13.98;58.04;97970.84;6238717;28;96368;-60
2022/11/04 06:31:46;;;;;;;;;14.00;13.00;;;;;14.11;57.71;97986.63;6238879;28;96263;-62
2022/11/04 06:34:50;;;;;;;;;17.25;15.25;;;;;14.25;57.65;97992.38;6230226;27;97690;-59
2022/11/04 06:37:55;;;;;;;;;17.40;15.80;;;;;14.20;57.31;97984.22;6238234;27;96343;-59
2022/11/04 06:41:02;;;;;;;;;18.00;16.75;;;;;14.48;57.05;97997.31;6234412;27;96255;-59
2022/11/04 06:44:10;;;;;;;;;16.00;14.00;;;;;14.63;56.48;98001.97;6255745;27;96245;-59
2022/11/04 06:47:14;;;;;;;;;17.00;16.00;;;;;14.85;55.87;98001.72;6250083;27;96812;-59
2022/11/04 06:50:21;;;;;;;;;13.40;13.00;;;;;15.07;55.20;97992.22;6224875;28;96684;-60
2022/11/04 06:53:25;;;;;;;;;16.00;15.00;;;;;16.42;52.35;98002.97;6257183;27;96415;-60
2022/11/04 06:56:30;;;;;;;;;12.00;11.20;;;;;17.59;48.92;98000.19;6243454;27;96413;-61
2022/11/04 06:59:33;;;;;;;;;15.00;14.00;;;;;18.60;45.74;98003.63;6258054;27;97634;-61
2022/11/04 07:02:37;;;;;;;;;14.00;13.00;;;;;19.69;42.99;97995.03;6240587;27;96523;-61
2022/11/04 07:05:41;;;;;;;;;15.00;14.75;;;;;20.87;40.31;97995.78;6258320;27;96406;-61
2022/11/04 07:08:45;;;;;;;;;15.00;13.80;;;;;22.66;36.59;97986.03;6243407;28;96323;-61
2022/11/04 07:11:49;;;;;;;;;12.60;11.60;;;;;23.57;34.57;97985.81;6243797;28;96393;-61
2022/11/04 07:14:54;;;;;;;;;15.20;14.00;;;;;23.94;33.87;97978.75;6245559;27;96283;-59
2022/11/04 07:17:58;;;;;;;;;15.00;14.00;;;;;23.91;32.89;97973.88;6256062;27;96401;-61
2022/11/04 07:21:03;;;;;;;;;15.75;13.75;;;;;23.27;34.01;97970.31;6242406;28;96681;-61
2022/11/04 07:24:12;;;;;;;;;12.20;10.20;;;;;23.41;33.82;97997.66;6225989;27;98381;-62
2022/11/04 07:27:16;;;;;;;;;15.00;14.00;;;;;24.48;32.36;97989.97;6260683;27;96283;-62
2022/11/04 07:30:20;;;;;;;;;15.00;15.00;;;;;26.01;30.51;97980.59;6236405;27;96988;-60
2022/11/04 07:33:24;;;;;;;;;17.25;16.00;;;;;26.46;29.07;97976.94;6219333;28;98649;-63
2022/11/04 07:36:27;;;;;;;;;19.00;15.40;;;;;27.86;27.61;97976.63;6247480;27;96927;-61
2022/11/04 07:39:30;;;;;;;;;16.00;15.20;;;;;29.95;24.57;97972.09;6251854;27;96946;-64
2022/11/04 07:42:35;;;;;;;;;15.00;13.00;;;;;31.91;22.46;97974.38;6231290;27;98336;-63
2022/11/04 07:45:42;;;;;;;;;13.00;13.00;;;;;32.19;20.68;97974.66;6242614;27;96426;-63
2022/11/04 07:48:46;;;;;;;;;17.00;16.00;;;;;31.00;22.89;97963.75;6248025;27;96802;-61
2022/11/04 07:51:49;;;;;;;;;16.25;13.25;;;;;29.39;24.59;97960.72;6222808;28;98029;-62
2022/11/04 07:54:53;;;;;;;;;14.00;13.00;;;;;28.02;25.41;97952.50;6253594;27;96959;-61
2022/11/04 07:57:58;;;;;;;;;14.00;13.50;;;;;26.63;27.67;97954.56;6250299;27;96301;-64
2022/11/04 08:01:03;;;;;;;;;15.40;14.00;;;;;25.74;28.61;97954.47;6244017;27;96341;-61
2022/11/04 08:04:06;;;;;;;;;17.00;13.00;;;;;25.09;29.87;97963.56;6250968;27;96423;-60
2022/11/04 08:07:10;;;;;;;;;15.00;13.40;;;;;24.27;31.10;97947.81;6257749;27;98089;-61
2022/11/04 08:10:13;;;;;;;;;17.00;15.00;;;;;23.42;31.90;97952.50;6253812;27;96450;-60
2022/11/04 08:13:18;;;;;;;;;15.40;13.40;;;;;22.60;33.54;97954.34;6249568;27;96503;-61
2022/11/04 08:16:24;;;;;;;;;14.00;13.00;;;;;21.95;34.41;97944.19;6256326;27;96512;-61
2022/11/04 08:19:33;;;;;;;;;18.00;15.00;;;;;21.46;35.25;97938.97;6244056;27;96601;-61
2022/11/04 08:22:36;;;;;;;;;15.00;13.60;;;;;21.18;36.41;97935.59;6252624;27;96423;-62
2022/11/04 08:25:40;;;;;;;;;13.00;13.00;;;;;21.14;36.58;97929.94;6249689;27;96617;-60
2022/11/04 08:28:44;;;;;;;;;17.00;14.60;;;;;22.79;34.74;97923.81;6245651;27;96341;-60
2022/11/04 08:31:48;;;;;;;;;16.60;15.40;;;;;26.16;29.77;97923.84;6241156;27;96328;-61
2022/11/04 08:34:51;;;;;;;;;14.40;13.40;;;;;28.93;25.59;97924.50;6227626;27;96464;-61
2022/11/04 08:37:55;;;;;;;;;14.00;13.00;;;;;29.72;25.41;97924.81;6244403;27;96612;-62
2022/11/04 08:40:58;;;;;;;;;15.00;13.00;;;;;31.12;22.60;97915.41;6257831;27;96227;-61
2022/11/04 08:44:05;;;;;;;;;12.60;12.00;;;;;33.07;21.47;97923.34;6247237;27;96744;-61
2022/11/04 08:47:08;;;;;;;;;12.00;10.40;;;;;34.45;18.84;97911.56;6257252;27;96303;-60
2022/11/04 08:50:11;;;;;;;;;11.00;11.00;;;;;35.49;17.31;97916.38;6237530;27;96635;-61
2022/11/04 08:53:15;;;;;;;;;14.00;11.00;;;;;36.42;17.83;97909.63;6246711;27;99020;-61
2022/11/04 08:56:22;;;;;;;;;11.60;10.40;;;;;36.46;16.62;97903.97;6250114;27;96814;-61
2022/11/04 08:59:26;;;;;;;;;10.25;10.00;;;;;36.31;16.81;97908.16;6247986;27;96340;-62
2022/11/04 09:02:29;;;;;;;;;10.80;10.80;;;;;33.97;18.35;97899.97;6257475;27;96342;-63
2022/11/04 09:05:33;;;;;;;;;11.50;10.50;;;;;32.75;19.47;97898.09;6250043;27;96254;-64
2022/11/04 09:08:40;;;;;;;;;11.60;11.00;;;;;32.91;19.47;97900.53;6249433;27;96254;-62
2022/11/04 09:11:44;;;;;;;;;12.00;11.40;;;;;32.42;19.91;97887.91;6257776;27;96479;-61
2022/11/04 09:14:50;;;;;;;;;12.00;11.25;;;;;31.18;21.56;97886.06;6241996;27;96726;-63
2022/11/04 09:17:54;;;;;;;;;13.60;12.00;;;;;30.02;22.16;97872.16;6249098;27;96792;-63
2022/11/04 09:21:01;;;;;;;;;14.20;13.60;;;;;29.94;22.85;97862.91;6242786;27;96330;-62
2022/11/04 09:24:06;;;;;;;;;11.80;9.80;;;;;30.12;22.27;97857.63;6243470;27;97314;-62
2022/11/04 09:27:10;;;;;;;;;11.00;9.00;;;;;30.15;21.86;97848.53;6260108;27;97025;-63
2022/11/04 09:30:15;;;;;;;;;9.50;9.00;;;;;29.86;22.05;97852.03;6245738;27;96598;-63
2022/11/04 09:33:19;;;;;;;;;10.60;9.00;;;;;29.23;22.35;97816.44;6224396;27;97016;-62
2022/11/04 09:36:23;;;;;;;;;11.00;9.20;;;;;28.62;22.77;97838.63;6212960;27;97192;-61
2022/11/04 09:39:26;;;;;;;;;10.00;10.00;;;;;28.17;23.27;97817.91;6246202;27;96402;-65
2022/11/04 09:42:47;;;;;;;;;9.00;8.00;;;;;29.22;22.70;97821.19;6254530;27;96384;-60
2022/11/04 09:45:53;;;;;;;;;8.00;7.00;;;;;29.97;21.81;97826.03;6270292;27;96441;-61
2022/11/04 09:48:57;;;;;;;;;9.25;9.00;;;;;30.43;21.53;97826.69;6247740;27;98088;-64
2022/11/04 09:52:06;;;;;;;;;11.20;8.60;;;;;31.25;21.36;97834.00;6239276;27;96844;-62
2022/11/04 09:55:17;;;;;;;;;10.00;8.00;;;;;32.54;20.02;97831.00;6258505;27;96829;-61
2022/11/04 09:58:21;;;;;;;;;10.00;8.00;;;;;33.71;18.75;97829.31;6236595;27;96925;-61
2022/11/04 10:01:33;;;;;;;;;10.00;9.00;;;;;34.15;18.66;97822.47;6254369;27;96452;-61
2022/11/04 10:04:50;;;;;;;;;9.00;9.00;;;;;34.00;18.64;97827.28;6255105;27;96923;-62
2022/11/04 10:08:17;;;;;;;;;11.00;10.60;;;;;34.44;17.51;97818.41;6243888;27;96966;-65
2022/11/04 10:11:30;;;;;;;;;9.00;8.00;;;;;35.29;17.53;97814.41;6245841;27;98450;-63
2022/11/04 10:14:57;;;;;;;;;10.00;9.00;;;;;36.05;16.90;97826.19;6238084;27;96835;-62
2022/11/04 10:18:17;;;;;;;;;11.00;9.00;;;;;36.63;16.63;97821.59;6216731;27;96972;-62
2022/11/04 10:21:33;;;;;;;;;8.00;8.00;;;;;37.53;15.59;97819.13;6230122;28;97517;-63
2022/11/04 10:24:42;;;;;;;;;11.00;10.00;;;;;37.94;15.25;97807.59;6256981;27;96208;-65
2022/11/04 10:27:47;;;;;;;;;11.00;10.00;;;;;37.68;15.47;97803.66;6256242;27;96122;-64
2022/11/04 10:30:52;;;;;;;;;10.75;9.00;;;;;36.62;16.47;97802.34;6255303;27;96482;-63
2022/11/04 10:34:06;;;;;;;;;9.00;8.60;;;;;36.12;17.02;97800.06;6231907;27;96576;-62
2022/11/04 10:37:11;;;;;;;;;9.00;8.00;;;;;36.41;17.08;97803.38;6224714;27;98372;-62
2022/11/04 10:40:21;;;;;;;;;8.00;6.50;;;;;36.50;16.48;97770.00;6211275;27;98529;-62
2022/11/04 10:43:31;;;;;;;;;7.20;7.20;;;;;36.68;15.74;97778.22;6243216;27;96743;-62
2022/11/04 10:46:49;;;;;;;;;7.40;7.00;;;;;36.45;16.79;97779.69;6241804;27;96242;-62
2022/11/04 10:50:13;;;;;;;;;6.00;6.00;;;;;36.30;16.71;97783.88;6252776;27;96561;-62
2022/11/04 10:53:33;;;;;;;;;10.00;8.00;;;;;35.78;17.71;97788.00;6223859;27;96746;-61
2022/11/04 10:56:44;;;;;;;;;11.50;11.00;;;;;34.90;18.46;97789.41;6229194;27;96428;-62
2022/11/04 10:59:53;;;;;;;;;11.50;10.75;;;;;33.74;19.39;97783.00;6232681;27;96999;-62
2022/11/04 11:02:57;;;;;;;;;14.40;12.00;;;;;32.47;20.07;97777.94;6253032;27;96301;-66
2022/11/04 11:06:23;;;;;;;;;12.00;11.00;;;;;30.81;21.58;97783.03;6244915;27;96459;-64
2022/11/04 11:09:29;;;;;;;;;11.40;9.40;;;;;29.63;23.21;97771.50;6250233;27;96816;-63
2022/11/04 11:12:39;;;;;;;;;11.40;9.40;;;;;28.91;24.06;97777.03;6252646;27;96326;-63
2022/11/04 11:16:08;;;;;;;;;11.40;9.60;;;;;27.88;25.25;97771.31;6244508;27;96436;-62
2022/11/04 11:19:18;;;;;;;;;11.75;10.75;;;;;26.77;26.18;97684.00;6246068;27;96517;-61
2022/11/04 11:22:36;;;;;;;;;10.67;10.67;;;;;26.03;27.54;97715.94;6239118;27;96718;-61
2022/11/04 11:25:45;;;;;;;;;10.00;10.00;;;;;24.54;28.08;97573.38;6243702;27;96398;-61
2022/11/04 11:28:55;;;;;;;;;8.60;8.20;;;;;24.54;29.09;97678.06;6237891;27;96848;-61
2022/11/04 11:32:26;;;;;;;;;11.50;11.00;;;;;23.89;30.26;97631.28;6243747;27;96936;-60
2022/11/04 11:35:40;;;;;;;;;11.00;10.00;;;;;23.35;30.64;97598.25;6248432;27;96446;-60
2022/11/04 11:38:56;;;;;;;;;8.40;8.40;;;;;22.66;31.19;97527.25;6254194;27;96814;-62
2022/11/04 11:42:02;;;;;;;;;7.00;7.00;;;;;23.68;31.88;97731.19;6247029;27;96616;-62
2022/11/04 11:45:16;;;;;;;;;9.00;8.00;;;;;23.68;31.77;97738.63;6263461;27;96760;-62
2022/11/04 11:48:30;;;;;;;;;10.00;8.00;;;;;23.58;32.37;97736.28;6231214;27;96959;-60
2022/11/04 11:51:36;;;;;;;;;10.00;8.00;;;;;23.42;32.48;97719.50;6220247;27;96496;-60
2022/11/04 11:54:45;;;;;;;;;11.00;10.00;;;;;23.35;32.64;97719.25;6246564;27;96468;-62
2022/11/04 11:58:00;;;;;;;;;9.20;9.00;;;;;23.29;33.02;97720.56;6241476;27;96350;-60
2022/11/04 12:01:32;;;;;;;;;13.00;11.00;;;;;23.06;33.08;97698.06;6253762;27;96571;-62
2022/11/04 12:04:39;;;;;;;;;10.00;9.80;;;;;22.74;33.65;97682.19;6248607;27;97387;-62
2022/11/04 12:08:20;;;;;;;;;14.00;11.00;;;;;22.98;33.92;97726.38;6214119;27;97063;-62
2022/11/04 12:12:17;;;;;;;;;12.00;10.00;;;;;22.91;33.92;97698.63;6240548;27;96988;-61
2022/11/04 12:15:41;;;;;;;;;12.40;11.00;;;;;22.24;33.94;97619.66;6223967;28;96854;-61
2022/11/04 12:19:09;;;;;;;;;14.00;11.60;;;;;22.71;33.89;97705.66;6241978;27;96695;-61
2022/11/04 12:22:26;;;;;;;;;7.50;7.50;;;;;22.77;34.03;97698.03;6221940;27;98281;-62
2022/11/04 12:25:40;;;;;;;;;12.00;11.00;;;;;22.88;34.18;97710.25;6231610;28;96376;-60
2022/11/04 12:29:03;;;;;;;;;11.00;10.80;;;;;22.89;34.15;97706.38;6240323;27;96357;-62
2022/11/04 12:32:20;;;;;;;;;9.80;8.00;;;;;22.43;34.26;97633.03;6245665;27;96294;-63
2022/11/04 12:35:37;;;;;;;;;12.00;10.00;;;;;22.79;34.08;97674.56;6225552;28;96768;-61
2022/11/04 12:38:54;;;;;;;;;9.80;9.00;;;;;23.15;33.79;97706.25;6241458;27;96625;-61
2022/11/04 12:42:11;;;;;;;;;10.40;9.00;;;;;23.24;33.76;97698.75;6234579;28;98878;-60
2022/11/04 12:45:41;;;;;;;;;11.00;10.00;;;;;23.15;33.35;97648.53;6218431;27;98727;-62
2022/11/04 12:49:22;;;;;;;;;9.60;9.60;;;;;23.32;33.26;97665.69;6207363;28;98874;-60
2022/11/04 12:52:48;;;;;;;;;9.00;8.75;;;;;22.86;33.48;97635.59;6218992;28;98901;-63
2022/11/04 12:56:03;;;;;;;;;9.00;8.00;;;;;22.82;33.72;97640.16;6219309;28;96537;-61
2022/11/04 12:59:32;;;;;;;;;9.00;8.50;;;;;23.00;33.33;97684.84;6240327;28;96422;-60
2022/11/04 13:02:43;;;;;;;;;8.40;8.00;;;;;22.50;33.78;97644.28;6241544;27;97377;-60
2022/11/04 13:05:52;;;;;;;;;8.60;8.00;;;;;22.79;34.06;97693.00;6246060;27;96477;-62
2022/11/04 13:09:00;;;;;;;;;9.60;8.60;;;;;22.65;34.50;97695.13;6241244;28;96386;-61
2022/11/04 13:12:11;;;;;;;;;9.00;8.00;;;;;22.68;34.72;97691.72;6229868;27;99161;-62
2022/11/04 13:15:19;;;;;;;;;8.00;7.40;;;;;22.70;34.37;97687.56;6224667;28;98397;-60
2022/11/04 13:18:28;;;;;;;;;9.60;8.60;;;;;22.64;35.07;97688.84;6221609;28;96899;-60
2022/11/04 13:21:38;;;;;;;;;9.20;7.20;;;;;22.52;34.92;97690.66;6222252;28;99009;-60
2022/11/04 13:24:48;;;;;;;;;9.00;8.00;;;;;22.48;34.58;97691.31;6240169;28;96884;-61
2022/11/04 13:27:52;;;;;;;;;9.80;8.80;;;;;22.53;35.06;97698.56;6239931;27;96377;-62
2022/11/04 13:31:04;;;;;;;;;10.00;9.00;;;;;22.52;34.43;97693.41;6235825;27;96464;-61
2022/11/04 13:34:18;;;;;;;;;11.00;10.00;;;;;22.39;34.92;97698.75;6227185;28;96531;-60
2022/11/04 13:37:33;;;;;;;;;9.00;8.00;;;;;22.24;34.99;97688.28;6213123;28;96725;-62
2022/11/04 13:40:46;;;;;;;;;10.50;9.00;;;;;22.12;35.12;97685.44;6209206;28;96315;-62
2022/11/04 13:43:54;;;;;;;;;9.00;8.00;;;;;22.08;35.31;97691.91;6221815;27;96398;-62
2022/11/04 13:47:00;;;;;;;;;7.75;7.00;;;;;21.97;35.40;97681.25;6213369;28;99093;-63
2022/11/04 13:50:06;;;;;;;;;10.60;10.40;;;;;22.00;35.66;97705.28;6227762;28;96585;-63
2022/11/04 13:53:11;;;;;;;;;9.00;8.40;;;;;21.75;35.47;97680.56;6212531;28;96507;-60
2022/11/04 13:56:30;;;;;;;;;10.00;9.00;;;;;21.86;35.93;97706.56;6211901;28;98486;-60
2022/11/04 13:59:40;;;;;;;;;12.00;11.40;;;;;21.73;36.29;97707.53;6237808;28;96250;-61
2022/11/04 14:02:44;;;;;;;;;11.00;10.00;;;;;21.64;36.19;97704.81;6232726;27;96271;-60
2022/11/04 14:06:04;;;;;;;;;11.00;10.00;;;;;21.53;36.65;97706.25;6217722;28;96441;-61
2022/11/04 14:09:34;;;;;;;;;9.60;9.60;;;;;21.45;36.81;97707.81;6236608;28;96395;-60
2022/11/04 14:12:37;;;;;;;;;10.00;8.00;;;;;21.39;36.95;97705.59;6197598;28;99174;-61
2022/11/04 14:16:02;;;;;;;;;9.00;8.00;;;;;21.40;36.96;97708.00;6228378;28;96793;-61
2022/11/04 14:19:56;;;;;;;;;9.00;8.00;;;;;21.35;37.10;97708.16;6225907;28;96382;-62
2022/11/04 14:23:02;;;;;;;;;11.25;9.25;;;;;21.13;37.24;97689.03;6238196;28;96726;-61
2022/11/04 14:26:07;;;;;;;;;10.00;10.00;;;;;20.33;37.81;97600.66;6223977;28;96434;-61
2022/11/04 14:29:18;;;;;;;;;11.00;10.00;;;;;21.13;37.26;97711.81;6224996;28;96316;-61
2022/11/04 14:32:27;;;;;;;;;12.00;11.00;;;;;21.12;37.74;97712.09;6205370;28;96639;-62
2022/11/04 14:35:31;;;;;;;;;9.00;9.00;;;;;;;;6211749;28;96414;-61
2022/11/04 14:38:37;;;;;;;;;11.00;10.60;;;;;21.00;37.94;97711.91;6235639;28;96509;-60
2022/11/04 14:41:56;;;;;;;;;11.60;11.00;;;;;20.93;37.83;97706.06;6215772;28;96526;-60
2022/11/04 14:45:00;;;;;;;;;10.00;10.00;;;;;20.73;38.25;97682.78;6221447;28;96764;-61
2022/11/04 14:48:15;;;;;;;;;12.00;10.25;;;;;20.61;38.46;97688.06;6202446;28;97943;-60
2022/11/04 14:51:26;;;;;;;;;11.20;10.80;;;;;20.67;38.83;97692.31;6226405;28;96963;-62
2022/11/04 14:54:36;;;;;;;;;13.00;13.00;;;;;20.62;38.77;97685.00;6225052;28;97549;-60
2022/11/04 14:57:43;;;;;;;;;14.00;13.40;;;;;20.40;39.17;97674.13;6203345;28;97955;-61
2022/11/04 15:00:54;;;;;;;;;12.00;11.00;;;;;20.49;39.38;97696.06;6205205;28;96612;-61
2022/11/04 15:04:07;;;;;;;;;12.40;11.00;;;;;20.47;39.23;97704.59;6215084;27;96884;-62